sensor_id;sensor_type;location;lat;lon;timestamp;P1;durP1;ratioP1;P2;durP2;ratioP2
45366;SDS011;31100;55.848;37.636;2023-02-13T00:02:24;5.18;;;2.28;;
45366;SDS011;31100;55.848;37.636;2023-02-13T00:04:49;3.22;;;1.95;;
45366;SDS011;31100;55.848;37.636;2023-02-13T00:07:15;5.78;;;2.10;;
45366;SDS011;31100;55.848;37.636;2023-02-13T00:09:41;5.18;;;2.60;;
45366;SDS011;31100;55.848;37.636;2023-02-13T00:12:06;4.07;;;2.78;;
45366;SDS011;31100;55.848;37.636;2023-02-13T00:14:36;4.88;;;2.30;;
45366;SDS011;31100;55.848;37.636;2023-02-13T00:17:02;8.10;;;3.10;;
45366;SDS011;31100;55.848;37.636;2023-02-13T00:19:28;7.13;;;2.75;;
45366;SDS011;31100;55.848;37.636;2023-02-13T00:21:54;6.90;;;2.72;;
45366;SDS011;31100;55.848;37.636;2023-02-13T00:24:19;7.13;;;2.80;;
45366;SDS011;31100;55.848;37.636;2023-02-13T00:26:45;5.72;;;2.78;;
45366;SDS011;31100;55.848;37.636;2023-02-13T00:29:11;6.68;;;3.03;;
45366;SDS011;31100;55.848;37.636;2023-02-13T00:31:36;6.72;;;3.40;;
45366;SDS011;31100;55.848;37.636;2023-02-13T00:34:02;5.07;;;2.40;;
45366;SDS011;31100;55.848;37.636;2023-02-13T00:36:27;5.45;;;2.95;;
45366;SDS011;31100;55.848;37.636;2023-02-13T00:38:53;7.82;;;2.70;;
45366;SDS011;31100;55.848;37.636;2023-02-13T00:41:19;6.55;;;3.28;;
45366;SDS011;31100;55.848;37.636;2023-02-13T00:43:45;5.05;;;2.40;;
45366;SDS011;31100;55.848;37.636;2023-02-13T00:46:11;7.00;;;2.42;;
45366;SDS011;31100;55.848;37.636;2023-02-13T00:48:37;6.75;;;2.70;;
45366;SDS011;31100;55.848;37.636;2023-02-13T00:51:03;6.90;;;2.83;;
45366;SDS011;31100;55.848;37.636;2023-02-13T00:53:29;5.93;;;3.38;;
45366;SDS011;31100;55.848;37.636;2023-02-13T00:55:55;8.98;;;2.67;;
45366;SDS011;31100;55.848;37.636;2023-02-13T00:58:20;5.63;;;2.25;;
45366;SDS011;31100;55.848;37.636;2023-02-13T01:00:49;7.28;;;3.33;;
45366;SDS011;31100;55.848;37.636;2023-02-13T01:03:16;7.75;;;2.67;;
45366;SDS011;31100;55.848;37.636;2023-02-13T01:05:42;3.92;;;2.40;;
45366;SDS011;31100;55.848;37.636;2023-02-13T01:08:09;4.95;;;2.63;;
45366;SDS011;31100;55.848;37.636;2023-02-13T01:10:36;7.85;;;2.55;;
45366;SDS011;31100;55.848;37.636;2023-02-13T01:13:02;8.82;;;3.75;;
45366;SDS011;31100;55.848;37.636;2023-02-13T01:15:28;4.10;;;2.45;;
45366;SDS011;31100;55.848;37.636;2023-02-13T01:17:53;4.28;;;2.17;;
45366;SDS011;31100;55.848;37.636;2023-02-13T01:20:21;4.60;;;2.13;;
45366;SDS011;31100;55.848;37.636;2023-02-13T01:22:47;4.47;;;2.25;;
45366;SDS011;31100;55.848;37.636;2023-02-13T01:25:13;4.40;;;2.50;;
45366;SDS011;31100;55.848;37.636;2023-02-13T01:27:38;5.00;;;2.70;;
45366;SDS011;31100;55.848;37.636;2023-02-13T01:30:04;5.05;;;2.20;;
45366;SDS011;31100;55.848;37.636;2023-02-13T01:32:34;5.30;;;2.70;;
45366;SDS011;31100;55.848;37.636;2023-02-13T01:35:00;4.63;;;2.60;;
45366;SDS011;31100;55.848;37.636;2023-02-13T01:37:25;5.28;;;2.85;;
45366;SDS011;31100;55.848;37.636;2023-02-13T01:39:51;4.72;;;2.40;;
45366;SDS011;31100;55.848;37.636;2023-02-13T01:42:24;5.43;;;2.40;;
45366;SDS011;31100;55.848;37.636;2023-02-13T01:44:58;4.45;;;2.40;;
45366;SDS011;31100;55.848;37.636;2023-02-13T01:50:00;5.50;;;2.20;;
45366;SDS011;31100;55.848;37.636;2023-02-13T01:52:30;4.80;;;2.45;;
45366;SDS011;31100;55.848;37.636;2023-02-13T01:54:56;4.03;;;2.00;;
45366;SDS011;31100;55.848;37.636;2023-02-13T01:57:22;6.05;;;2.40;;
45366;SDS011;31100;55.848;37.636;2023-02-13T01:59:54;5.60;;;2.90;;
45366;SDS011;31100;55.848;37.636;2023-02-13T02:02:23;6.70;;;2.38;;
45366;SDS011;31100;55.848;37.636;2023-02-13T02:04:49;7.18;;;3.47;;
45366;SDS011;31100;55.848;37.636;2023-02-13T02:07:25;5.65;;;2.38;;
45366;SDS011;31100;55.848;37.636;2023-02-13T02:09:52;4.72;;;2.22;;
45366;SDS011;31100;55.848;37.636;2023-02-13T02:14:53;6.63;;;2.28;;
45366;SDS011;31100;55.848;37.636;2023-02-13T02:17:23;5.10;;;1.95;;
45366;SDS011;31100;55.848;37.636;2023-02-13T02:28:37;6.60;;;2.40;;
45366;SDS011;31100;55.848;37.636;2023-02-13T02:47:51;5.57;;;2.33;;
45366;SDS011;31100;55.848;37.636;2023-02-13T02:50:50;3.10;;;1.67;;
45366;SDS011;31100;55.848;37.636;2023-02-13T02:56:07;4.35;;;1.80;;
45366;SDS011;31100;55.848;37.636;2023-02-13T02:59:23;4.20;;;1.88;;
45366;SDS011;31100;55.848;37.636;2023-02-13T03:01:46;4.00;;;1.50;;
45366;SDS011;31100;55.848;37.636;2023-02-13T03:04:32;5.13;;;1.95;;
45366;SDS011;31100;55.848;37.636;2023-02-13T03:07:21;6.97;;;1.75;;
45366;SDS011;31100;55.848;37.636;2023-02-13T03:09:56;4.53;;;1.90;;
45366;SDS011;31100;55.848;37.636;2023-02-13T03:12:44;6.80;;;1.88;;
45366;SDS011;31100;55.848;37.636;2023-02-13T03:15:30;4.90;;;1.80;;
45366;SDS011;31100;55.848;37.636;2023-02-13T03:17:57;8.15;;;2.17;;
45366;SDS011;31100;55.848;37.636;2023-02-13T03:20:45;5.85;;;1.90;;
45366;SDS011;31100;55.848;37.636;2023-02-13T03:32:33;4.20;;;2.05;;
45366;SDS011;31100;55.848;37.636;2023-02-13T03:35:33;7.07;;;2.15;;
45366;SDS011;31100;55.848;37.636;2023-02-13T03:38:29;6.65;;;2.30;;
45366;SDS011;31100;55.848;37.636;2023-02-13T03:41:02;6.05;;;2.20;;
45366;SDS011;31100;55.848;37.636;2023-02-13T03:46:18;6.53;;;2.55;;
45366;SDS011;31100;55.848;37.636;2023-02-13T03:48:44;6.70;;;2.30;;
45366;SDS011;31100;55.848;37.636;2023-02-13T03:51:36;6.80;;;2.20;;
45366;SDS011;31100;55.848;37.636;2023-02-13T03:54:06;6.18;;;1.83;;
45366;SDS011;31100;55.848;37.636;2023-02-13T03:56:42;8.23;;;2.03;;
45366;SDS011;31100;55.848;37.636;2023-02-13T03:59:32;5.03;;;2.10;;
45366;SDS011;31100;55.848;37.636;2023-02-13T04:02:05;6.47;;;2.15;;
45366;SDS011;31100;55.848;37.636;2023-02-13T04:07:04;5.47;;;2.47;;
45366;SDS011;31100;55.848;37.636;2023-02-13T04:09:33;5.55;;;2.58;;
45366;SDS011;31100;55.848;37.636;2023-02-13T04:14:47;8.05;;;3.72;;
45366;SDS011;31100;55.848;37.636;2023-02-13T04:17:21;7.18;;;2.33;;
45366;SDS011;31100;55.848;37.636;2023-02-13T04:19:49;6.88;;;2.13;;
45366;SDS011;31100;55.848;37.636;2023-02-13T04:22:15;6.03;;;2.40;;
45366;SDS011;31100;55.848;37.636;2023-02-13T04:24:41;4.38;;;1.85;;
45366;SDS011;31100;55.848;37.636;2023-02-13T04:27:07;7.97;;;2.20;;
45366;SDS011;31100;55.848;37.636;2023-02-13T04:29:33;6.47;;;2.22;;
45366;SDS011;31100;55.848;37.636;2023-02-13T04:31:58;6.45;;;1.80;;
45366;SDS011;31100;55.848;37.636;2023-02-13T04:34:24;7.03;;;2.30;;
45366;SDS011;31100;55.848;37.636;2023-02-13T04:36:49;4.85;;;1.98;;
45366;SDS011;31100;55.848;37.636;2023-02-13T04:39:15;6.68;;;2.25;;
45366;SDS011;31100;55.848;37.636;2023-02-13T04:41:40;5.10;;;1.75;;
45366;SDS011;31100;55.848;37.636;2023-02-13T04:44:06;6.13;;;1.90;;
45366;SDS011;31100;55.848;37.636;2023-02-13T04:46:32;7.55;;;2.38;;
45366;SDS011;31100;55.848;37.636;2023-02-13T04:48:57;4.95;;;2.28;;
45366;SDS011;31100;55.848;37.636;2023-02-13T04:51:23;7.78;;;1.85;;
45366;SDS011;31100;55.848;37.636;2023-02-13T04:53:48;4.90;;;1.65;;
45366;SDS011;31100;55.848;37.636;2023-02-13T04:56:14;4.35;;;1.60;;
45366;SDS011;31100;55.848;37.636;2023-02-13T04:58:39;4.13;;;1.50;;
45366;SDS011;31100;55.848;37.636;2023-02-13T05:01:12;6.97;;;2.13;;
45366;SDS011;31100;55.848;37.636;2023-02-13T05:03:38;5.35;;;1.60;;
45366;SDS011;31100;55.848;37.636;2023-02-13T05:06:03;4.80;;;1.80;;
45366;SDS011;31100;55.848;37.636;2023-02-13T05:08:29;5.85;;;2.38;;
45366;SDS011;31100;55.848;37.636;2023-02-13T05:10:55;4.65;;;1.40;;
45366;SDS011;31100;55.848;37.636;2023-02-13T05:13:20;3.88;;;1.50;;
45366;SDS011;31100;55.848;37.636;2023-02-13T05:15:46;4.22;;;1.25;;
45366;SDS011;31100;55.848;37.636;2023-02-13T05:18:12;5.57;;;1.45;;
45366;SDS011;31100;55.848;37.636;2023-02-13T05:20:39;6.22;;;3.17;;
45366;SDS011;31100;55.848;37.636;2023-02-13T05:23:07;5.70;;;2.22;;
45366;SDS011;31100;55.848;37.636;2023-02-13T05:25:47;3.63;;;1.63;;
45366;SDS011;31100;55.848;37.636;2023-02-13T05:28:13;4.10;;;1.55;;
45366;SDS011;31100;55.848;37.636;2023-02-13T05:30:57;6.68;;;1.65;;
45366;SDS011;31100;55.848;37.636;2023-02-13T05:33:22;4.38;;;1.58;;
45366;SDS011;31100;55.848;37.636;2023-02-13T05:35:48;3.97;;;1.65;;
45366;SDS011;31100;55.848;37.636;2023-02-13T05:38:13;6.05;;;1.50;;
45366;SDS011;31100;55.848;37.636;2023-02-13T05:40:39;5.68;;;2.20;;
45366;SDS011;31100;55.848;37.636;2023-02-13T05:43:04;5.88;;;1.73;;
45366;SDS011;31100;55.848;37.636;2023-02-13T05:45:30;5.88;;;1.85;;
45366;SDS011;31100;55.848;37.636;2023-02-13T05:47:55;6.10;;;1.75;;
45366;SDS011;31100;55.848;37.636;2023-02-13T05:50:21;3.83;;;1.60;;
45366;SDS011;31100;55.848;37.636;2023-02-13T05:52:46;4.70;;;2.38;;
45366;SDS011;31100;55.848;37.636;2023-02-13T05:55:12;3.67;;;1.60;;
45366;SDS011;31100;55.848;37.636;2023-02-13T05:57:37;8.40;;;2.00;;
45366;SDS011;31100;55.848;37.636;2023-02-13T06:00:03;3.78;;;1.60;;
45366;SDS011;31100;55.848;37.636;2023-02-13T06:02:30;3.58;;;1.63;;
45366;SDS011;31100;55.848;37.636;2023-02-13T06:04:56;5.25;;;1.90;;
45366;SDS011;31100;55.848;37.636;2023-02-13T06:07:21;4.07;;;1.85;;
45366;SDS011;31100;55.848;37.636;2023-02-13T06:09:47;4.35;;;1.60;;
45366;SDS011;31100;55.848;37.636;2023-02-13T06:12:12;4.25;;;2.20;;
45366;SDS011;31100;55.848;37.636;2023-02-13T06:14:38;3.65;;;1.90;;
45366;SDS011;31100;55.848;37.636;2023-02-13T06:17:03;5.03;;;1.95;;
45366;SDS011;31100;55.848;37.636;2023-02-13T06:19:29;6.45;;;2.28;;
45366;SDS011;31100;55.848;37.636;2023-02-13T06:21:54;5.10;;;1.90;;
45366;SDS011;31100;55.848;37.636;2023-02-13T06:24:20;5.85;;;1.90;;
45366;SDS011;31100;55.848;37.636;2023-02-13T06:26:45;5.18;;;1.90;;
45366;SDS011;31100;55.848;37.636;2023-02-13T06:29:11;5.85;;;2.00;;
45366;SDS011;31100;55.848;37.636;2023-02-13T06:31:37;4.88;;;1.98;;
45366;SDS011;31100;55.848;37.636;2023-02-13T06:34:02;5.07;;;1.80;;
45366;SDS011;31100;55.848;37.636;2023-02-13T06:36:28;5.72;;;2.20;;
45366;SDS011;31100;55.848;37.636;2023-02-13T06:38:54;8.05;;;2.80;;
45366;SDS011;31100;55.848;37.636;2023-02-13T06:41:19;6.53;;;3.70;;
45366;SDS011;31100;55.848;37.636;2023-02-13T06:43:45;7.70;;;5.20;;
45366;SDS011;31100;55.848;37.636;2023-02-13T06:46:11;5.10;;;2.53;;
45366;SDS011;31100;55.848;37.636;2023-02-13T06:48:36;4.07;;;1.88;;
45366;SDS011;31100;55.848;37.636;2023-02-13T06:51:02;5.80;;;3.28;;
45366;SDS011;31100;55.848;37.636;2023-02-13T06:53:28;4.85;;;2.30;;
45366;SDS011;31100;55.848;37.636;2023-02-13T06:55:54;8.18;;;4.63;;
45366;SDS011;31100;55.848;37.636;2023-02-13T06:58:20;6.65;;;2.60;;
45366;SDS011;31100;55.848;37.636;2023-02-13T07:00:46;6.70;;;2.15;;
45366;SDS011;31100;55.848;37.636;2023-02-13T07:03:12;7.93;;;2.70;;
45366;SDS011;31100;55.848;37.636;2023-02-13T07:05:41;6.85;;;2.67;;
45366;SDS011;31100;55.848;37.636;2023-02-13T07:08:07;5.72;;;1.90;;
45366;SDS011;31100;55.848;37.636;2023-02-13T07:10:35;6.43;;;2.53;;
45366;SDS011;31100;55.848;37.636;2023-02-13T07:13:02;5.20;;;2.00;;
45366;SDS011;31100;55.848;37.636;2023-02-13T07:15:27;4.20;;;1.85;;
45366;SDS011;31100;55.848;37.636;2023-02-13T07:17:56;9.57;;;3.25;;
45366;SDS011;31100;55.848;37.636;2023-02-13T07:20:22;5.45;;;2.70;;
45366;SDS011;31100;55.848;37.636;2023-02-13T07:22:48;6.20;;;2.80;;
45366;SDS011;31100;55.848;37.636;2023-02-13T07:25:14;5.60;;;2.72;;
45366;SDS011;31100;55.848;37.636;2023-02-13T07:27:39;5.45;;;2.78;;
45366;SDS011;31100;55.848;37.636;2023-02-13T07:30:05;6.20;;;2.78;;
45366;SDS011;31100;55.848;37.636;2023-02-13T07:32:31;5.00;;;3.08;;
45366;SDS011;31100;55.848;37.636;2023-02-13T07:34:57;12.20;;;3.08;;
45366;SDS011;31100;55.848;37.636;2023-02-13T07:37:22;6.35;;;2.58;;
45366;SDS011;31100;55.848;37.636;2023-02-13T07:39:48;6.03;;;3.42;;
45366;SDS011;31100;55.848;37.636;2023-02-13T07:42:13;11.30;;;3.10;;
45366;SDS011;31100;55.848;37.636;2023-02-13T07:44:39;9.40;;;3.38;;
45366;SDS011;31100;55.848;37.636;2023-02-13T07:47:04;6.95;;;2.33;;
45366;SDS011;31100;55.848;37.636;2023-02-13T07:49:30;5.28;;;2.33;;
45366;SDS011;31100;55.848;37.636;2023-02-13T07:51:56;5.05;;;2.67;;
45366;SDS011;31100;55.848;37.636;2023-02-13T07:54:22;6.90;;;2.42;;
45366;SDS011;31100;55.848;37.636;2023-02-13T07:56:48;7.10;;;3.28;;
45366;SDS011;31100;55.848;37.636;2023-02-13T07:59:14;9.13;;;2.72;;
45366;SDS011;31100;55.848;37.636;2023-02-13T08:01:39;5.55;;;2.80;;
45366;SDS011;31100;55.848;37.636;2023-02-13T08:04:05;5.93;;;2.78;;
45366;SDS011;31100;55.848;37.636;2023-02-13T08:06:30;4.55;;;2.30;;
45366;SDS011;31100;55.848;37.636;2023-02-13T08:08:56;7.03;;;2.72;;
45366;SDS011;31100;55.848;37.636;2023-02-13T08:11:40;6.57;;;2.40;;
45366;SDS011;31100;55.848;37.636;2023-02-13T08:14:21;5.32;;;2.40;;
45366;SDS011;31100;55.848;37.636;2023-02-13T08:16:47;6.72;;;2.67;;
45366;SDS011;31100;55.848;37.636;2023-02-13T08:19:13;6.97;;;2.65;;
45366;SDS011;31100;55.848;37.636;2023-02-13T08:21:39;8.10;;;2.60;;
45366;SDS011;31100;55.848;37.636;2023-02-13T08:24:05;7.50;;;3.10;;
45366;SDS011;31100;55.848;37.636;2023-02-13T08:26:31;7.40;;;3.08;;
45366;SDS011;31100;55.848;37.636;2023-02-13T08:28:57;9.55;;;3.20;;
45366;SDS011;31100;55.848;37.636;2023-02-13T08:31:23;9.45;;;3.33;;
45366;SDS011;31100;55.848;37.636;2023-02-13T08:33:48;7.88;;;2.70;;
45366;SDS011;31100;55.848;37.636;2023-02-13T08:36:14;5.85;;;2.40;;
45366;SDS011;31100;55.848;37.636;2023-02-13T08:38:40;6.18;;;2.97;;
45366;SDS011;31100;55.848;37.636;2023-02-13T08:41:05;9.05;;;3.03;;
45366;SDS011;31100;55.848;37.636;2023-02-13T08:43:30;5.55;;;2.60;;
45366;SDS011;31100;55.848;37.636;2023-02-13T08:45:59;8.75;;;3.33;;
45366;SDS011;31100;55.848;37.636;2023-02-13T08:48:25;8.57;;;3.10;;
45366;SDS011;31100;55.848;37.636;2023-02-13T08:50:51;11.38;;;3.00;;
45366;SDS011;31100;55.848;37.636;2023-02-13T08:53:17;14.27;;;3.97;;
45366;SDS011;31100;55.848;37.636;2023-02-13T08:55:42;8.77;;;4.18;;
45366;SDS011;31100;55.848;37.636;2023-02-13T09:00:41;6.70;;;2.45;;
45366;SDS011;31100;55.848;37.636;2023-02-13T09:03:07;7.28;;;2.88;;
45366;SDS011;31100;55.848;37.636;2023-02-13T09:05:32;9.57;;;3.45;;
45366;SDS011;31100;55.848;37.636;2023-02-13T09:07:58;10.27;;;3.20;;
45366;SDS011;31100;55.848;37.636;2023-02-13T09:10:26;9.23;;;3.90;;
45366;SDS011;31100;55.848;37.636;2023-02-13T09:12:52;11.63;;;3.58;;
45366;SDS011;31100;55.848;37.636;2023-02-13T09:15:18;9.18;;;3.67;;
45366;SDS011;31100;55.848;37.636;2023-02-13T09:17:43;10.30;;;3.50;;
45366;SDS011;31100;55.848;37.636;2023-02-13T09:20:09;12.43;;;3.60;;
45366;SDS011;31100;55.848;37.636;2023-02-13T09:22:40;8.68;;;3.95;;
45366;SDS011;31100;55.848;37.636;2023-02-13T09:25:06;8.75;;;3.50;;
45366;SDS011;31100;55.848;37.636;2023-02-13T09:27:32;7.25;;;3.17;;
45366;SDS011;31100;55.848;37.636;2023-02-13T09:29:59;10.65;;;3.28;;
45366;SDS011;31100;55.848;37.636;2023-02-13T09:32:25;9.07;;;3.75;;
45366;SDS011;31100;55.848;37.636;2023-02-13T09:34:51;9.45;;;3.63;;
45366;SDS011;31100;55.848;37.636;2023-02-13T09:37:16;13.77;;;4.85;;
45366;SDS011;31100;55.848;37.636;2023-02-13T09:39:42;9.20;;;3.65;;
45366;SDS011;31100;55.848;37.636;2023-02-13T09:42:18;8.60;;;3.60;;
45366;SDS011;31100;55.848;37.636;2023-02-13T09:44:49;9.05;;;4.50;;
45366;SDS011;31100;55.848;37.636;2023-02-13T09:50:41;7.78;;;3.20;;
45366;SDS011;31100;55.848;37.636;2023-02-13T09:52:48;9.80;;;3.47;;
45366;SDS011;31100;55.848;37.636;2023-02-13T09:55:16;10.70;;;4.50;;
45366;SDS011;31100;55.848;37.636;2023-02-13T10:00:20;12.82;;;4.60;;
45366;SDS011;31100;55.848;37.636;2023-02-13T10:10:52;8.50;;;3.60;;
45366;SDS011;31100;55.848;37.636;2023-02-13T10:16:42;8.88;;;3.60;;
45366;SDS011;31100;55.848;37.636;2023-02-13T10:24:43;10.32;;;3.67;;
45366;SDS011;31100;55.848;37.636;2023-02-13T10:27:22;8.27;;;3.88;;
45366;SDS011;31100;55.848;37.636;2023-02-13T10:29:57;10.00;;;5.75;;
45366;SDS011;31100;55.848;37.636;2023-02-13T10:35:26;7.70;;;3.67;;
45366;SDS011;31100;55.848;37.636;2023-02-13T10:37:54;9.23;;;4.03;;
45366;SDS011;31100;55.848;37.636;2023-02-13T10:40:23;12.00;;;4.65;;
45366;SDS011;31100;55.848;37.636;2023-02-13T10:43:17;10.00;;;4.65;;
45366;SDS011;31100;55.848;37.636;2023-02-13T10:48:17;6.60;;;3.97;;
45366;SDS011;31100;55.848;37.636;2023-02-13T10:51:25;7.95;;;4.43;;
45366;SDS011;31100;55.848;37.636;2023-02-13T11:02:23;9.35;;;4.10;;
45366;SDS011;31100;55.848;37.636;2023-02-13T11:05:01;12.45;;;4.32;;
45366;SDS011;31100;55.848;37.636;2023-02-13T11:07:31;12.52;;;4.22;;
45366;SDS011;31100;55.848;37.636;2023-02-13T11:09:58;7.80;;;4.18;;
45366;SDS011;31100;55.848;37.636;2023-02-13T11:12:32;11.50;;;4.88;;
45366;SDS011;31100;55.848;37.636;2023-02-13T11:15:03;9.30;;;4.70;;
45366;SDS011;31100;55.848;37.636;2023-02-13T11:17:35;9.77;;;4.20;;
45366;SDS011;31100;55.848;37.636;2023-02-13T11:20:22;8.90;;;4.90;;
45366;SDS011;31100;55.848;37.636;2023-02-13T11:22:49;13.13;;;4.75;;
45366;SDS011;31100;55.848;37.636;2023-02-13T11:25:19;8.75;;;4.97;;
45366;SDS011;31100;55.848;37.636;2023-02-13T11:27:49;11.32;;;4.45;;
45366;SDS011;31100;55.848;37.636;2023-02-13T11:30:32;11.15;;;5.22;;
45366;SDS011;31100;55.848;37.636;2023-02-13T11:33:04;13.20;;;5.38;;
45366;SDS011;31100;55.848;37.636;2023-02-13T11:35:35;14.23;;;5.43;;
45366;SDS011;31100;55.848;37.636;2023-02-13T11:38:11;12.45;;;4.68;;
45366;SDS011;31100;55.848;37.636;2023-02-13T11:40:42;12.93;;;5.05;;
45366;SDS011;31100;55.848;37.636;2023-02-13T11:43:19;12.25;;;4.90;;
45366;SDS011;31100;55.848;37.636;2023-02-13T11:46:10;10.65;;;6.07;;
45366;SDS011;31100;55.848;37.636;2023-02-13T11:48:41;15.52;;;4.57;;
45366;SDS011;31100;55.848;37.636;2023-02-13T11:51:07;8.13;;;4.53;;
45366;SDS011;31100;55.848;37.636;2023-02-13T11:53:37;12.13;;;4.82;;
45366;SDS011;31100;55.848;37.636;2023-02-13T11:58:37;12.00;;;5.07;;
45366;SDS011;31100;55.848;37.636;2023-02-13T12:03:55;9.65;;;5.45;;
45366;SDS011;31100;55.848;37.636;2023-02-13T12:06:24;14.90;;;5.57;;
45366;SDS011;31100;55.848;37.636;2023-02-13T12:08:49;11.45;;;5.70;;
45366;SDS011;31100;55.848;37.636;2023-02-13T12:14:33;11.35;;;5.93;;
45366;SDS011;31100;55.848;37.636;2023-02-13T12:17:06;12.98;;;5.10;;
45366;SDS011;31100;55.848;37.636;2023-02-13T12:19:36;13.48;;;5.43;;
45366;SDS011;31100;55.848;37.636;2023-02-13T12:25:13;10.57;;;3.60;;
45366;SDS011;31100;55.848;37.636;2023-02-13T12:27:55;9.45;;;3.90;;
45366;SDS011;31100;55.848;37.636;2023-02-13T12:36:35;6.38;;;3.08;;
45366;SDS011;31100;55.848;37.636;2023-02-13T12:44:22;28.15;;;6.95;;
45366;SDS011;31100;55.848;37.636;2023-02-13T12:52:33;11.25;;;5.72;;
45366;SDS011;31100;55.848;37.636;2023-02-13T13:00:28;11.13;;;6.30;;
45366;SDS011;31100;55.848;37.636;2023-02-13T13:14:08;9.20;;;4.05;;
45366;SDS011;31100;55.848;37.636;2023-02-13T13:16:48;10.85;;;4.85;;
45366;SDS011;31100;55.848;37.636;2023-02-13T13:21:50;8.35;;;3.78;;
45366;SDS011;31100;55.848;37.636;2023-02-13T13:26:50;13.25;;;6.15;;
45366;SDS011;31100;55.848;37.636;2023-02-13T13:29:22;11.48;;;3.88;;
45366;SDS011;31100;55.848;37.636;2023-02-13T13:31:54;9.55;;;3.35;;
45366;SDS011;31100;55.848;37.636;2023-02-13T13:34:24;9.95;;;2.83;;
45366;SDS011;31100;55.848;37.636;2023-02-13T13:44:47;9.93;;;3.00;;
45366;SDS011;31100;55.848;37.636;2023-02-13T13:50:05;10.02;;;3.42;;
45366;SDS011;31100;55.848;37.636;2023-02-13T13:53:03;10.15;;;3.17;;
45366;SDS011;31100;55.848;37.636;2023-02-13T13:58:22;11.68;;;3.67;;
45366;SDS011;31100;55.848;37.636;2023-02-13T14:09:38;7.30;;;2.83;;
45366;SDS011;31100;55.848;37.636;2023-02-13T14:14:49;6.75;;;2.55;;
45366;SDS011;31100;55.848;37.636;2023-02-13T14:17:48;4.38;;;2.80;;
45366;SDS011;31100;55.848;37.636;2023-02-13T14:22:47;7.13;;;3.35;;
45366;SDS011;31100;55.848;37.636;2023-02-13T14:25:46;7.82;;;3.13;;
45366;SDS011;31100;55.848;37.636;2023-02-13T14:28:05;6.90;;;2.92;;
45366;SDS011;31100;55.848;37.636;2023-02-13T14:30:32;10.20;;;3.50;;
45366;SDS011;31100;55.848;37.636;2023-02-13T14:33:00;15.18;;;4.53;;
45366;SDS011;31100;55.848;37.636;2023-02-13T14:35:28;10.85;;;3.20;;
45366;SDS011;31100;55.848;37.636;2023-02-13T14:37:57;7.70;;;3.72;;
45366;SDS011;31100;55.848;37.636;2023-02-13T14:43:18;8.63;;;3.58;;
45366;SDS011;31100;55.848;37.636;2023-02-13T14:46:32;8.23;;;3.25;;
45366;SDS011;31100;55.848;37.636;2023-02-13T14:48:56;7.82;;;3.38;;
45366;SDS011;31100;55.848;37.636;2023-02-13T14:51:46;6.07;;;2.70;;
45366;SDS011;31100;55.848;37.636;2023-02-13T14:54:17;6.53;;;3.38;;
45366;SDS011;31100;55.848;37.636;2023-02-13T14:59:40;7.43;;;3.72;;
45366;SDS011;31100;55.848;37.636;2023-02-13T15:04:50;6.38;;;3.17;;
45366;SDS011;31100;55.848;37.636;2023-02-13T15:07:21;7.82;;;3.70;;
45366;SDS011;31100;55.848;37.636;2023-02-13T15:09:50;6.20;;;3.20;;
45366;SDS011;31100;55.848;37.636;2023-02-13T15:12:28;6.15;;;3.30;;
45366;SDS011;31100;55.848;37.636;2023-02-13T15:14:55;6.57;;;3.80;;
45366;SDS011;31100;55.848;37.636;2023-02-13T15:17:23;9.63;;;3.67;;
45366;SDS011;31100;55.848;37.636;2023-02-13T15:19:51;10.13;;;4.03;;
45366;SDS011;31100;55.848;37.636;2023-02-13T15:22:19;9.77;;;4.18;;
45366;SDS011;31100;55.848;37.636;2023-02-13T15:24:56;8.02;;;3.63;;
45366;SDS011;31100;55.848;37.636;2023-02-13T15:27:33;8.68;;;3.28;;
45366;SDS011;31100;55.848;37.636;2023-02-13T15:30:03;8.05;;;4.63;;
45366;SDS011;31100;55.848;37.636;2023-02-13T15:32:42;7.47;;;4.10;;
45366;SDS011;31100;55.848;37.636;2023-02-13T15:35:21;6.57;;;3.83;;
45366;SDS011;31100;55.848;37.636;2023-02-13T15:37:48;5.82;;;3.47;;
45366;SDS011;31100;55.848;37.636;2023-02-13T15:40:35;11.77;;;3.83;;
45366;SDS011;31100;55.848;37.636;2023-02-13T15:43:00;6.95;;;3.50;;
45366;SDS011;31100;55.848;37.636;2023-02-13T15:45:26;8.52;;;3.85;;
45366;SDS011;31100;55.848;37.636;2023-02-13T15:47:52;8.10;;;3.40;;
45366;SDS011;31100;55.848;37.636;2023-02-13T15:52:56;8.30;;;3.78;;
45366;SDS011;31100;55.848;37.636;2023-02-13T15:55:24;8.73;;;3.90;;
45366;SDS011;31100;55.848;37.636;2023-02-13T15:57:52;8.27;;;3.83;;
45366;SDS011;31100;55.848;37.636;2023-02-13T16:00:21;6.90;;;4.00;;
45366;SDS011;31100;55.848;37.636;2023-02-13T16:02:49;10.07;;;4.82;;
45366;SDS011;31100;55.848;37.636;2023-02-13T16:05:15;8.45;;;4.50;;
45366;SDS011;31100;55.848;37.636;2023-02-13T16:07:48;9.35;;;5.35;;
45366;SDS011;31100;55.848;37.636;2023-02-13T16:12:50;8.20;;;4.40;;
45366;SDS011;31100;55.848;37.636;2023-02-13T16:15:16;9.40;;;4.20;;
45366;SDS011;31100;55.848;37.636;2023-02-13T16:17:43;9.30;;;4.47;;
45366;SDS011;31100;55.848;37.636;2023-02-13T16:22:43;8.20;;;4.70;;
45366;SDS011;31100;55.848;37.636;2023-02-13T16:28:02;8.13;;;4.37;;
45366;SDS011;31100;55.848;37.636;2023-02-13T16:30:33;9.68;;;5.05;;
45366;SDS011;31100;55.848;37.636;2023-02-13T16:35:51;13.00;;;4.68;;
45366;SDS011;31100;55.848;37.636;2023-02-13T16:46:11;10.05;;;4.78;;
45366;SDS011;31100;55.848;37.636;2023-02-13T16:48:47;9.52;;;4.82;;
45366;SDS011;31100;55.848;37.636;2023-02-13T16:53:57;10.52;;;5.20;;
45366;SDS011;31100;55.848;37.636;2023-02-13T16:56:23;10.48;;;4.60;;
45366;SDS011;31100;55.848;37.636;2023-02-13T16:58:48;9.88;;;5.22;;
45366;SDS011;31100;55.848;37.636;2023-02-13T17:01:14;9.23;;;4.78;;
45366;SDS011;31100;55.848;37.636;2023-02-13T17:03:42;11.98;;;5.15;;
45366;SDS011;31100;55.848;37.636;2023-02-13T17:06:08;9.52;;;5.47;;
45366;SDS011;31100;55.848;37.636;2023-02-13T17:08:35;9.50;;;4.65;;
45366;SDS011;31100;55.848;37.636;2023-02-13T17:11:01;12.35;;;4.85;;
45366;SDS011;31100;55.848;37.636;2023-02-13T17:13:29;8.15;;;4.70;;
45366;SDS011;31100;55.848;37.636;2023-02-13T17:15:55;8.95;;;4.93;;
45366;SDS011;31100;55.848;37.636;2023-02-13T17:18:20;8.82;;;4.65;;
45366;SDS011;31100;55.848;37.636;2023-02-13T17:20:46;9.77;;;5.53;;
45366;SDS011;31100;55.848;37.636;2023-02-13T17:23:13;9.60;;;3.95;;
45366;SDS011;31100;55.848;37.636;2023-02-13T17:25:41;10.60;;;4.85;;
45366;SDS011;31100;55.848;37.636;2023-02-13T17:28:14;8.18;;;3.88;;
45366;SDS011;31100;55.848;37.636;2023-02-13T17:30:40;11.05;;;4.60;;
45366;SDS011;31100;55.848;37.636;2023-02-13T17:33:09;10.20;;;4.75;;
45366;SDS011;31100;55.848;37.636;2023-02-13T17:35:35;11.43;;;4.40;;
45366;SDS011;31100;55.848;37.636;2023-02-13T17:38:01;11.70;;;4.15;;
45366;SDS011;31100;55.848;37.636;2023-02-13T17:40:27;14.02;;;4.70;;
45366;SDS011;31100;55.848;37.636;2023-02-13T17:42:54;7.25;;;4.43;;
45366;SDS011;31100;55.848;37.636;2023-02-13T17:45:22;12.57;;;5.15;;
45366;SDS011;31100;55.848;37.636;2023-02-13T17:47:48;8.85;;;5.22;;
45366;SDS011;31100;55.848;37.636;2023-02-13T17:50:14;10.60;;;4.75;;
45366;SDS011;31100;55.848;37.636;2023-02-13T17:52:41;10.13;;;4.95;;
45366;SDS011;31100;55.848;37.636;2023-02-13T17:55:40;9.82;;;5.15;;
45366;SDS011;31100;55.848;37.636;2023-02-13T17:57:59;12.98;;;6.22;;
45366;SDS011;31100;55.848;37.636;2023-02-13T18:00:26;9.30;;;5.82;;
45366;SDS011;31100;55.848;37.636;2023-02-13T18:02:54;10.55;;;5.55;;
45366;SDS011;31100;55.848;37.636;2023-02-13T18:05:20;9.95;;;6.00;;